sensor_id;sensor_type;location;lat;lon;timestamp;pressure;altitude;pressure_sealevel;temperature;humidity
67987;BME280;54767;53.800;15.956;2023-03-15T00:00:10;98919.10;;;2.74;76.13
67987;BME280;54767;53.800;15.956;2023-03-15T00:02:59;98927.91;;;2.73;76.01
67987;BME280;54767;53.800;15.956;2023-03-15T00:05:31;98935.30;;;2.71;76.07
67987;BME280;54767;53.800;15.956;2023-03-15T00:07:59;98938.71;;;2.67;76.08
67987;BME280;54767;53.800;15.956;2023-03-15T00:10:31;98939.02;;;2.65;75.97
67987;BME280;54767;53.800;15.956;2023-03-15T00:12:59;98944.36;;;2.63;76.14
67987;BME280;54767;53.800;15.956;2023-03-15T00:15:28;98951.45;;;2.62;75.97
67987;BME280;54767;53.800;15.956;2023-03-15T00:17:56;98956.60;;;2.62;75.98
67987;BME280;54767;53.800;15.956;2023-03-15T00:20:25;98964.52;;;2.58;75.99
67987;BME280;54767;53.800;15.956;2023-03-15T00:22:53;98974.65;;;2.55;76.01
67987;BME280;54767;53.800;15.956;2023-03-15T00:25:21;98984.08;;;2.50;76.16
67987;BME280;54767;53.800;15.956;2023-03-15T00:27:49;98991.28;;;2.46;76.28
67987;BME280;54767;53.800;15.956;2023-03-15T00:30:18;99003.50;;;2.44;76.36
67987;BME280;54767;53.800;15.956;2023-03-15T00:32:46;99010.03;;;2.42;76.38
67987;BME280;54767;53.800;15.956;2023-03-15T00:35:14;99010.37;;;2.41;76.29
67987;BME280;54767;53.800;15.956;2023-03-15T00:37:45;99012.42;;;2.40;76.26
67987;BME280;54767;53.800;15.956;2023-03-15T00:40:13;99017.55;;;2.36;76.26
67987;BME280;54767;53.800;15.956;2023-03-15T00:42:42;99025.59;;;2.31;76.28
67987;BME280;54767;53.800;15.956;2023-03-15T00:45:19;99032.46;;;2.30;76.37
67987;BME280;54767;53.800;15.956;2023-03-15T00:47:49;99030.73;;;2.29;76.38
67987;BME280;54767;53.800;15.956;2023-03-15T00:50:19;99036.26;;;2.29;76.36
67987;BME280;54767;53.800;15.956;2023-03-15T00:52:48;99039.52;;;2.28;76.40
67987;BME280;54767;53.800;15.956;2023-03-15T00:55:18;99045.38;;;2.28;76.36
67987;BME280;54767;53.800;15.956;2023-03-15T00:57:47;99055.20;;;2.26;76.56
67987;BME280;54767;53.800;15.956;2023-03-15T01:00:18;99057.11;;;2.27;76.58
67987;BME280;54767;53.800;15.956;2023-03-15T01:02:52;99064.36;;;2.26;76.66
67987;BME280;54767;53.800;15.956;2023-03-15T01:05:21;99070.76;;;2.28;76.65
67987;BME280;54767;53.800;15.956;2023-03-15T01:07:50;99067.50;;;2.29;76.67
67987;BME280;54767;53.800;15.956;2023-03-15T01:10:19;99071.66;;;2.30;76.64
67987;BME280;54767;53.800;15.956;2023-03-15T01:12:47;99072.50;;;2.28;76.65
67987;BME280;54767;53.800;15.956;2023-03-15T01:15:15;99070.21;;;2.26;76.64
67987;BME280;54767;53.800;15.956;2023-03-15T01:17:44;99077.45;;;2.26;76.72
67987;BME280;54767;53.800;15.956;2023-03-15T01:20:13;99078.14;;;2.25;76.72
67987;BME280;54767;53.800;15.956;2023-03-15T01:22:41;99086.59;;;2.25;76.70
67987;BME280;54767;53.800;15.956;2023-03-15T01:25:10;99086.77;;;2.25;76.65
67987;BME280;54767;53.800;15.956;2023-03-15T01:27:38;99095.06;;;2.25;76.56
67987;BME280;54767;53.800;15.956;2023-03-15T01:30:07;99099.88;;;2.24;76.65
67987;BME280;54767;53.800;15.956;2023-03-15T01:32:36;99103.84;;;2.23;76.85
67987;BME280;54767;53.800;15.956;2023-03-15T01:35:05;99107.44;;;2.22;76.81
67987;BME280;54767;53.800;15.956;2023-03-15T01:37:33;99108.48;;;2.22;76.66
67987;BME280;54767;53.800;15.956;2023-03-15T01:40:01;99110.70;;;2.21;76.83
67987;BME280;54767;53.800;15.956;2023-03-15T01:42:52;99118.48;;;2.22;76.73
67987;BME280;54767;53.800;15.956;2023-03-15T01:48:41;99138.02;;;2.15;76.71
67987;BME280;54767;53.800;15.956;2023-03-15T01:53:57;99134.88;;;2.12;76.84
67987;BME280;54767;53.800;15.956;2023-03-15T01:56:27;99137.80;;;2.12;76.78
67987;BME280;54767;53.800;15.956;2023-03-15T01:58:58;99142.45;;;2.11;76.78
67987;BME280;54767;53.800;15.956;2023-03-15T02:01:28;99145.00;;;2.09;76.63
67987;BME280;54767;53.800;15.956;2023-03-15T02:04:02;99145.81;;;2.06;76.71
67987;BME280;54767;53.800;15.956;2023-03-15T02:06:34;99147.67;;;2.04;76.88
67987;BME280;54767;53.800;15.956;2023-03-15T02:09:08;99151.45;;;2.02;76.74
67987;BME280;54767;53.800;15.956;2023-03-15T02:11:42;99155.06;;;2.02;76.89
67987;BME280;54767;53.800;15.956;2023-03-15T02:14:11;99158.69;;;2.02;76.88
67987;BME280;54767;53.800;15.956;2023-03-15T02:16:41;99161.63;;;2.03;76.90
67987;BME280;54767;53.800;15.956;2023-03-15T02:20:04;99163.19;;;2.03;76.89
67987;BME280;54767;53.800;15.956;2023-03-15T02:27:11;99168.80;;;1.99;76.89
67987;BME280;54767;53.800;15.956;2023-03-15T02:29:40;99172.93;;;1.98;76.83
67987;BME280;54767;53.800;15.956;2023-03-15T02:32:09;99175.73;;;2.00;76.76
67987;BME280;54767;53.800;15.956;2023-03-15T02:34:37;99179.33;;;1.98;76.73
67987;BME280;54767;53.800;15.956;2023-03-15T02:37:05;99185.13;;;1.95;76.67
67987;BME280;54767;53.800;15.956;2023-03-15T02:39:34;99188.52;;;1.92;76.76
67987;BME280;54767;53.800;15.956;2023-03-15T02:42:02;99193.84;;;1.91;76.60
67987;BME280;54767;53.800;15.956;2023-03-15T02:44:33;99200.86;;;1.88;76.42
67987;BME280;54767;53.800;15.956;2023-03-15T02:49:46;99206.12;;;1.85;76.73
67987;BME280;54767;53.800;15.956;2023-03-15T02:52:16;99214.02;;;1.83;76.67
67987;BME280;54767;53.800;15.956;2023-03-15T02:54:44;99218.81;;;1.80;76.48
67987;BME280;54767;53.800;15.956;2023-03-15T02:57:15;99222.05;;;1.78;76.65
67987;BME280;54767;53.800;15.956;2023-03-15T02:59:43;99227.55;;;1.77;76.74
67987;BME280;54767;53.800;15.956;2023-03-15T03:02:12;99231.35;;;1.77;76.56
67987;BME280;54767;53.800;15.956;2023-03-15T03:04:40;99231.17;;;1.77;76.52
67987;BME280;54767;53.800;15.956;2023-03-15T03:07:09;99237.14;;;1.74;76.44
67987;BME280;54767;53.800;15.956;2023-03-15T03:09:37;99239.14;;;1.70;76.53
67987;BME280;54767;53.800;15.956;2023-03-15T03:12:06;99246.85;;;1.68;76.56
67987;BME280;54767;53.800;15.956;2023-03-15T03:14:34;99251.81;;;1.67;76.67
67987;BME280;54767;53.800;15.956;2023-03-15T03:17:02;99261.30;;;1.67;76.74
67987;BME280;54767;53.800;15.956;2023-03-15T03:19:31;99267.17;;;1.68;76.70
67987;BME280;54767;53.800;15.956;2023-03-15T03:21:59;99263.06;;;1.68;76.88
67987;BME280;54767;53.800;15.956;2023-03-15T03:24:27;99273.77;;;1.69;76.75
67987;BME280;54767;53.800;15.956;2023-03-15T03:26:56;99275.29;;;1.68;76.75
67987;BME280;54767;53.800;15.956;2023-03-15T03:29:25;99282.67;;;1.66;76.75
67987;BME280;54767;53.800;15.956;2023-03-15T03:31:54;99280.92;;;1.65;77.00
67987;BME280;54767;53.800;15.956;2023-03-15T03:34:22;99284.00;;;1.64;77.01
67987;BME280;54767;53.800;15.956;2023-03-15T03:36:50;99294.21;;;1.66;76.93
67987;BME280;54767;53.800;15.956;2023-03-15T03:39:18;99290.46;;;1.68;76.83
67987;BME280;54767;53.800;15.956;2023-03-15T03:41:47;99297.52;;;1.66;76.80
67987;BME280;54767;53.800;15.956;2023-03-15T03:44:15;99301.45;;;1.65;76.86
67987;BME280;54767;53.800;15.956;2023-03-15T03:46:44;99298.98;;;1.63;76.87
67987;BME280;54767;53.800;15.956;2023-03-15T03:49:12;99305.54;;;1.63;77.06
67987;BME280;54767;53.800;15.956;2023-03-15T03:51:41;99314.67;;;1.63;77.13
67987;BME280;54767;53.800;15.956;2023-03-15T03:54:09;99319.05;;;1.65;76.85
67987;BME280;54767;53.800;15.956;2023-03-15T03:56:38;99322.86;;;1.67;77.17
67987;BME280;54767;53.800;15.956;2023-03-15T03:59:06;99323.56;;;1.67;77.09
67987;BME280;54767;53.800;15.956;2023-03-15T04:01:35;99330.11;;;1.67;77.26
67987;BME280;54767;53.800;15.956;2023-03-15T04:04:03;99333.05;;;1.68;77.22
67987;BME280;54767;53.800;15.956;2023-03-15T04:06:31;99335.17;;;1.68;77.27
67987;BME280;54767;53.800;15.956;2023-03-15T04:09:00;99346.05;;;1.69;77.46
67987;BME280;54767;53.800;15.956;2023-03-15T04:11:29;99350.87;;;1.69;77.38
67987;BME280;54767;53.800;15.956;2023-03-15T04:13:58;99357.06;;;1.69;77.48
67987;BME280;54767;53.800;15.956;2023-03-15T04:16:26;99359.07;;;1.66;77.45
67987;BME280;54767;53.800;15.956;2023-03-15T04:18:54;99365.77;;;1.65;77.52
67987;BME280;54767;53.800;15.956;2023-03-15T04:21:23;99370.10;;;1.66;77.57
67987;BME280;54767;53.800;15.956;2023-03-15T04:23:51;99375.63;;;1.67;77.72
67987;BME280;54767;53.800;15.956;2023-03-15T04:26:20;99381.90;;;1.68;77.54
67987;BME280;54767;53.800;15.956;2023-03-15T04:28:49;99382.93;;;1.69;77.52
67987;BME280;54767;53.800;15.956;2023-03-15T04:31:17;99383.11;;;1.69;77.69
67987;BME280;54767;53.800;15.956;2023-03-15T04:33:45;99386.92;;;1.70;77.61
67987;BME280;54767;53.800;15.956;2023-03-15T04:36:14;99386.92;;;1.70;77.57
67987;BME280;54767;53.800;15.956;2023-03-15T04:38:46;99391.25;;;1.70;77.65
67987;BME280;54767;53.800;15.956;2023-03-15T04:41:16;99390.27;;;1.73;77.57
67987;BME280;54767;53.800;15.956;2023-03-15T04:43:45;99398.06;;;1.73;77.61
67987;BME280;54767;53.800;15.956;2023-03-15T04:46:13;99400.45;;;1.73;77.53
67987;BME280;54767;53.800;15.956;2023-03-15T04:48:41;99402.15;;;1.72;77.55
67987;BME280;54767;53.800;15.956;2023-03-15T04:51:10;99401.65;;;1.72;77.70
67987;BME280;54767;53.800;15.956;2023-03-15T04:53:38;99403.42;;;1.74;77.58
67987;BME280;54767;53.800;15.956;2023-03-15T04:56:07;99406.92;;;1.76;77.75
67987;BME280;54767;53.800;15.956;2023-03-15T04:58:35;99406.95;;;1.78;77.60
67987;BME280;54767;53.800;15.956;2023-03-15T05:01:03;99407.69;;;1.79;77.69
67987;BME280;54767;53.800;15.956;2023-03-15T05:03:32;99412.95;;;1.76;77.61
67987;BME280;54767;53.800;15.956;2023-03-15T05:06:01;99412.86;;;1.72;77.50
67987;BME280;54767;53.800;15.956;2023-03-15T05:08:35;99413.84;;;1.70;77.57
67987;BME280;54767;53.800;15.956;2023-03-15T05:11:04;99419.36;;;1.70;77.54
67987;BME280;54767;53.800;15.956;2023-03-15T05:13:33;99421.61;;;1.71;77.50
67987;BME280;54767;53.800;15.956;2023-03-15T05:16:01;99423.69;;;1.71;77.49
67987;BME280;54767;53.800;15.956;2023-03-15T05:18:29;99431.10;;;1.70;77.48
67987;BME280;54767;53.800;15.956;2023-03-15T05:20:58;99438.62;;;1.68;77.55
67987;BME280;54767;53.800;15.956;2023-03-15T05:23:26;99435.59;;;1.64;77.50
67987;BME280;54767;53.800;15.956;2023-03-15T05:25:55;99438.14;;;1.63;77.68
67987;BME280;54767;53.800;15.956;2023-03-15T05:28:24;99438.69;;;1.64;77.52
67987;BME280;54767;53.800;15.956;2023-03-15T05:30:52;99437.48;;;1.63;77.38
67987;BME280;54767;53.800;15.956;2023-03-15T05:33:21;99445.59;;;1.63;77.62
67987;BME280;54767;53.800;15.956;2023-03-15T05:35:49;99449.39;;;1.64;77.71
67987;BME280;54767;53.800;15.956;2023-03-15T05:38:17;99450.40;;;1.63;77.64
67987;BME280;54767;53.800;15.956;2023-03-15T05:40:46;99459.34;;;1.62;78.00
67987;BME280;54767;53.800;15.956;2023-03-15T05:43:15;99461.08;;;1.63;77.76
67987;BME280;54767;53.800;15.956;2023-03-15T05:45:43;99464.57;;;1.64;77.83
67987;BME280;54767;53.800;15.956;2023-03-15T05:48:11;99470.81;;;1.65;77.96
67987;BME280;54767;53.800;15.956;2023-03-15T05:50:40;99475.65;;;1.65;77.69
67987;BME280;54767;53.800;15.956;2023-03-15T05:53:08;99481.19;;;1.66;77.94
67987;BME280;54767;53.800;15.956;2023-03-15T05:55:37;99485.69;;;1.67;77.99
67987;BME280;54767;53.800;15.956;2023-03-15T05:58:05;99491.57;;;1.68;77.94
67987;BME280;54767;53.800;15.956;2023-03-15T06:00:34;99496.09;;;1.69;78.07
67987;BME280;54767;53.800;15.956;2023-03-15T06:03:02;99501.00;;;1.72;77.96
67987;BME280;54767;53.800;15.956;2023-03-15T06:05:31;99509.17;;;1.74;77.86
67987;BME280;54767;53.800;15.956;2023-03-15T06:08:00;99514.88;;;1.75;78.15
67987;BME280;54767;53.800;15.956;2023-03-15T06:10:28;99520.60;;;1.76;77.99
67987;BME280;54767;53.800;15.956;2023-03-15T06:12:56;99527.31;;;1.75;77.97
67987;BME280;54767;53.800;15.956;2023-03-15T06:15:25;99529.89;;;1.76;77.85
67987;BME280;54767;53.800;15.956;2023-03-15T06:17:53;99536.64;;;1.76;77.90
67987;BME280;54767;53.800;15.956;2023-03-15T06:20:21;99541.48;;;1.77;77.94
67987;BME280;54767;53.800;15.956;2023-03-15T06:22:49;99547.63;;;1.74;77.73
67987;BME280;54767;53.800;15.956;2023-03-15T06:25:18;99553.12;;;1.73;77.79
67987;BME280;54767;53.800;15.956;2023-03-15T06:27:46;99557.60;;;1.73;77.99
67987;BME280;54767;53.800;15.956;2023-03-15T06:30:14;99560.58;;;1.75;78.17
67987;BME280;54767;53.800;15.956;2023-03-15T06:32:44;99566.48;;;1.76;77.95
67987;BME280;54767;53.800;15.956;2023-03-15T06:35:12;99568.44;;;1.79;78.11
67987;BME280;54767;53.800;15.956;2023-03-15T06:37:41;99575.19;;;1.79;77.91
67987;BME280;54767;53.800;15.956;2023-03-15T06:40:10;99580.35;;;1.79;78.03
67987;BME280;54767;53.800;15.956;2023-03-15T06:42:39;99583.86;;;1.81;78.03
67987;BME280;54767;53.800;15.956;2023-03-15T06:45:09;99585.98;;;1.83;78.22
67987;BME280;54767;53.800;15.956;2023-03-15T06:47:37;99589.65;;;1.85;78.03
67987;BME280;54767;53.800;15.956;2023-03-15T06:50:06;99588.36;;;1.88;78.10
67987;BME280;54767;53.800;15.956;2023-03-15T06:52:35;99594.46;;;1.91;78.06
67987;BME280;54767;53.800;15.956;2023-03-15T06:55:04;99598.67;;;1.93;77.98
67987;BME280;54767;53.800;15.956;2023-03-15T06:57:33;99602.84;;;1.94;78.05
67987;BME280;54767;53.800;15.956;2023-03-15T07:00:01;99605.02;;;1.92;77.90
67987;BME280;54767;53.800;15.956;2023-03-15T07:02:29;99611.01;;;1.90;77.83
67987;BME280;54767;53.800;15.956;2023-03-15T07:05:04;99618.08;;;1.90;77.93
67987;BME280;54767;53.800;15.956;2023-03-15T07:07:32;99617.31;;;1.93;77.99
67987;BME280;54767;53.800;15.956;2023-03-15T07:10:01;99617.58;;;1.97;77.96
67987;BME280;54767;53.800;15.956;2023-03-15T07:12:29;99623.33;;;1.99;78.01
67987;BME280;54767;53.800;15.956;2023-03-15T07:14:58;99629.22;;;2.00;78.00
67987;BME280;54767;53.800;15.956;2023-03-15T07:17:26;99637.34;;;2.00;77.99
67987;BME280;54767;53.800;15.956;2023-03-15T07:19:54;99645.63;;;2.00;78.05
67987;BME280;54767;53.800;15.956;2023-03-15T07:22:23;99645.48;;;2.01;77.98
67987;BME280;54767;53.800;15.956;2023-03-15T07:24:53;99652.22;;;2.01;77.97
67987;BME280;54767;53.800;15.956;2023-03-15T07:27:21;99654.50;;;2.03;77.99
67987;BME280;54767;53.800;15.956;2023-03-15T07:29:50;99662.39;;;2.07;78.03
67987;BME280;54767;53.800;15.956;2023-03-15T07:32:18;99660.69;;;2.09;78.05
67987;BME280;54767;53.800;15.956;2023-03-15T07:34:46;99668.97;;;2.09;78.11
67987;BME280;54767;53.800;15.956;2023-03-15T07:37:15;99674.98;;;2.08;78.13
67987;BME280;54767;53.800;15.956;2023-03-15T07:39:44;99679.71;;;2.10;78.18
67987;BME280;54767;53.800;15.956;2023-03-15T07:42:12;99682.40;;;2.13;78.34
67987;BME280;54767;53.800;15.956;2023-03-15T07:44:41;99689.27;;;2.18;78.16
67987;BME280;54767;53.800;15.956;2023-03-15T07:47:09;99690.92;;;2.23;78.18
67987;BME280;54767;53.800;15.956;2023-03-15T07:49:37;99691.73;;;2.27;78.12
67987;BME280;54767;53.800;15.956;2023-03-15T07:52:06;99698.02;;;2.29;78.00
67987;BME280;54767;53.800;15.956;2023-03-15T07:54:34;99698.89;;;2.30;78.16
67987;BME280;54767;53.800;15.956;2023-03-15T07:57:04;99713.27;;;2.32;78.13
67987;BME280;54767;53.800;15.956;2023-03-15T07:59:32;99714.09;;;2.30;77.93
67987;BME280;54767;53.800;15.956;2023-03-15T08:02:00;99718.11;;;2.32;78.09
67987;BME280;54767;53.800;15.956;2023-03-15T08:04:30;99721.27;;;2.34;78.00
67987;BME280;54767;53.800;15.956;2023-03-15T08:06:58;99723.21;;;2.35;77.72
67987;BME280;54767;53.800;15.956;2023-03-15T08:09:27;99727.70;;;2.35;77.60
67987;BME280;54767;53.800;15.956;2023-03-15T08:11:55;99734.61;;;2.36;77.82
67987;BME280;54767;53.800;15.956;2023-03-15T08:14:23;99740.67;;;2.37;77.76
67987;BME280;54767;53.800;15.956;2023-03-15T08:20:18;99751.61;;;2.38;77.78
67987;BME280;54767;53.800;15.956;2023-03-15T08:22:48;99757.76;;;2.42;77.75
67987;BME280;54767;53.800;15.956;2023-03-15T08:25:19;99756.67;;;2.46;77.73
67987;BME280;54767;53.800;15.956;2023-03-15T08:27:49;99762.94;;;2.48;77.63
67987;BME280;54767;53.800;15.956;2023-03-15T08:30:19;99767.98;;;2.50;77.72
67987;BME280;54767;53.800;15.956;2023-03-15T08:32:49;99774.38;;;2.51;77.66
67987;BME280;54767;53.800;15.956;2023-03-15T08:35:20;99778.69;;;2.50;77.56
67987;BME280;54767;53.800;15.956;2023-03-15T08:37:49;99778.91;;;2.52;77.60
67987;BME280;54767;53.800;15.956;2023-03-15T08:40:20;99777.21;;;2.53;77.50
67987;BME280;54767;53.800;15.956;2023-03-15T08:42:52;99777.94;;;2.54;77.58
67987;BME280;54767;53.800;15.956;2023-03-15T08:45:22;99782.49;;;2.57;77.76
67987;BME280;54767;53.800;15.956;2023-03-15T08:47:56;99788.95;;;2.59;77.88
67987;BME280;54767;53.800;15.956;2023-03-15T08:50:26;99790.52;;;2.60;77.79
67987;BME280;54767;53.800;15.956;2023-03-15T08:52:55;99791.62;;;2.62;77.77
67987;BME280;54767;53.800;15.956;2023-03-15T08:55:23;99792.58;;;2.66;77.91
67987;BME280;54767;53.800;15.956;2023-03-15T08:57:51;99797.71;;;2.71;77.60
67987;BME280;54767;53.800;15.956;2023-03-15T09:00:20;99799.86;;;2.73;77.81
67987;BME280;54767;53.800;15.956;2023-03-15T09:02:50;99802.38;;;2.77;78.00
67987;BME280;54767;53.800;15.956;2023-03-15T09:05:23;99810.09;;;2.81;77.77
67987;BME280;54767;53.800;15.956;2023-03-15T09:07:52;99816.83;;;2.81;77.76
67987;BME280;54767;53.800;15.956;2023-03-15T09:10:20;99817.52;;;2.81;77.53
67987;BME280;54767;53.800;15.956;2023-03-15T09:12:50;99820.01;;;2.83;77.55
67987;BME280;54767;53.800;15.956;2023-03-15T09:15:20;99821.82;;;2.87;77.74
67987;BME280;54767;53.800;15.956;2023-03-15T09:17:50;99826.98;;;2.92;77.53
67987;BME280;54767;53.800;15.956;2023-03-15T09:20:19;99831.90;;;2.96;77.62
67987;BME280;54767;53.800;15.956;2023-03-15T09:22:52;99839.61;;;3.00;77.79
67987;BME280;54767;53.800;15.956;2023-03-15T09:25:22;99835.33;;;3.01;77.64
67987;BME280;54767;53.800;15.956;2023-03-15T09:27:52;99847.83;;;3.04;77.70
67987;BME280;54767;53.800;15.956;2023-03-15T09:30:20;99848.79;;;3.07;77.34
67987;BME280;54767;53.800;15.956;2023-03-15T09:32:49;99853.69;;;3.09;77.16
67987;BME280;54767;53.800;15.956;2023-03-15T09:35:19;99852.67;;;3.10;77.02
67987;BME280;54767;53.800;15.956;2023-03-15T09:37:49;99853.03;;;3.11;76.95
67987;BME280;54767;53.800;15.956;2023-03-15T09:40:32;99855.38;;;3.14;77.32
67987;BME280;54767;53.800;15.956;2023-03-15T09:51:26;99868.57;;;3.37;76.89
67987;BME280;54767;53.800;15.956;2023-03-15T09:57:00;99878.51;;;3.40;76.78
67987;BME280;54767;53.800;15.956;2023-03-15T09:59:33;99881.02;;;3.44;77.19
67987;BME280;54767;53.800;15.956;2023-03-15T10:04:42;99885.30;;;3.56;76.83
67987;BME280;54767;53.800;15.956;2023-03-15T10:07:13;99887.30;;;3.60;76.58
67987;BME280;54767;53.800;15.956;2023-03-15T10:09:44;99895.17;;;3.64;76.55
67987;BME280;54767;53.800;15.956;2023-03-15T10:12:24;99894.89;;;3.66;76.23
67987;BME280;54767;53.800;15.956;2023-03-15T10:16:01;99897.33;;;3.67;76.27
67987;BME280;54767;53.800;15.956;2023-03-15T10:24:19;99902.66;;;3.80;76.39
67987;BME280;54767;53.800;15.956;2023-03-15T10:26:50;99908.85;;;3.85;75.96
67987;BME280;54767;53.800;15.956;2023-03-15T10:29:22;99906.91;;;3.91;75.80
67987;BME280;54767;53.800;15.956;2023-03-15T10:31:53;99907.01;;;3.95;75.37
67987;BME280;54767;53.800;15.956;2023-03-15T10:34:22;99905.50;;;3.97;75.49
67987;BME280;54767;53.800;15.956;2023-03-15T10:36:53;99904.68;;;3.99;75.20
67987;BME280;54767;53.800;15.956;2023-03-15T10:39:24;99909.36;;;4.07;75.87
67987;BME280;54767;53.800;15.956;2023-03-15T10:41:52;99911.48;;;4.17;75.71
67987;BME280;54767;53.800;15.956;2023-03-15T10:44:23;99920.55;;;4.27;75.87
67987;BME280;54767;53.800;15.956;2023-03-15T10:47:21;99919.95;;;4.40;75.71
67987;BME280;54767;53.800;15.956;2023-03-15T10:49:58;99922.50;;;4.54;75.42
67987;BME280;54767;53.800;15.956;2023-03-15T10:52:36;99922.84;;;4.61;74.82
67987;BME280;54767;53.800;15.956;2023-03-15T10:55:09;99925.62;;;4.70;74.86
67987;BME280;54767;53.800;15.956;2023-03-15T10:57:50;99927.71;;;4.79;74.47
67987;BME280;54767;53.800;15.956;2023-03-15T11:00:29;99924.52;;;4.85;74.17
67987;BME280;54767;53.800;15.956;2023-03-15T11:03:06;99930.13;;;4.88;73.91
67987;BME280;54767;53.800;15.956;2023-03-15T11:05:45;99932.71;;;4.95;74.14
67987;BME280;54767;53.800;15.956;2023-03-15T11:08:18;99931.13;;;5.03;73.75
67987;BME280;54767;53.800;15.956;2023-03-15T11:10:58;99933.88;;;5.11;73.89
67987;BME280;54767;53.800;15.956;2023-03-15T11:13:31;99937.77;;;5.14;72.52
67987;BME280;54767;53.800;15.956;2023-03-15T11:18:47;99939.56;;;5.18;72.14
67987;BME280;54767;53.800;15.956;2023-03-15T11:21:17;99943.27;;;5.21;72.06
67987;BME280;54767;53.800;15.956;2023-03-15T11:23:48;99939.53;;;5.26;71.62
67987;BME280;54767;53.800;15.956;2023-03-15T11:26:20;99937.02;;;5.30;71.27
67987;BME280;54767;53.800;15.956;2023-03-15T11:29:06;99939.21;;;5.37;71.49
67987;BME280;54767;53.800;15.956;2023-03-15T11:31:41;99940.81;;;5.48;71.68
67987;BME280;54767;53.800;15.956;2023-03-15T11:34:22;99940.88;;;5.52;71.00
67987;BME280;54767;53.800;15.956;2023-03-15T11:36:56;99942.96;;;5.52;70.57
67987;BME280;54767;53.800;15.956;2023-03-15T11:39:46;99945.77;;;5.53;70.29
67987;BME280;54767;53.800;15.956;2023-03-15T11:42:48;99944.42;;;5.56;70.64
67987;BME280;54767;53.800;15.956;2023-03-15T11:48:12;99947.39;;;5.57;70.11
67987;BME280;54767;53.800;15.956;2023-03-15T11:50:42;99948.90;;;5.54;69.96
67987;BME280;54767;53.800;15.956;2023-03-15T11:53:14;99947.81;;;5.52;70.19
67987;BME280;54767;53.800;15.956;2023-03-15T11:55:48;99947.59;;;5.49;69.38
67987;BME280;54767;53.800;15.956;2023-03-15T11:58:32;99943.69;;;5.45;69.62
67987;BME280;54767;53.800;15.956;2023-03-15T12:01:05;99943.00;;;5.44;69.81
67987;BME280;54767;53.800;15.956;2023-03-15T12:03:42;99946.31;;;5.45;69.40
67987;BME280;54767;53.800;15.956;2023-03-15T12:16:28;99948.64;;;5.49;68.85
67987;BME280;54767;53.800;15.956;2023-03-15T12:18:58;99948.55;;;5.53;69.10
67987;BME280;54767;53.800;15.956;2023-03-15T12:21:39;99944.30;;;5.58;69.04
67987;BME280;54767;53.800;15.956;2023-03-15T12:24:29;99944.59;;;5.66;69.35
67987;BME280;54767;53.800;15.956;2023-03-15T12:27:05;99943.17;;;5.74;68.08
67987;BME280;54767;53.800;15.956;2023-03-15T12:29:43;99953.27;;;5.77;67.69
67987;BME280;54767;53.800;15.956;2023-03-15T12:32:16;99958.76;;;5.72;67.06
67987;BME280;54767;53.800;15.956;2023-03-15T12:34:48;99960.30;;;5.61;67.23
67987;BME280;54767;53.800;15.956;2023-03-15T12:37:27;99959.54;;;5.48;66.44
67987;BME280;54767;53.800;15.956;2023-03-15T12:40:01;99965.77;;;5.27;66.49
67987;BME280;54767;53.800;15.956;2023-03-15T12:45:34;99979.08;;;5.08;66.90
67987;BME280;54767;53.800;15.956;2023-03-15T12:55:42;99994.94;;;5.11;69.26
67987;BME280;54767;53.800;15.956;2023-03-15T12:58:12;99988.34;;;5.19;68.99
67987;BME280;54767;53.800;15.956;2023-03-15T13:00:43;99987.10;;;5.27;69.02
67987;BME280;54767;53.800;15.956;2023-03-15T13:03:19;99989.34;;;5.35;69.49
67987;BME280;54767;53.800;15.956;2023-03-15T13:09:36;99990.84;;;5.60;68.93
67987;BME280;54767;53.800;15.956;2023-03-15T13:17:05;100015.59;;;5.65;67.00
67987;BME280;54767;53.800;15.956;2023-03-15T13:19:41;100035.58;;;5.57;66.85
67987;BME280;54767;53.800;15.956;2023-03-15T13:25:19;100027.98;;;5.32;67.05
67987;BME280;54767;53.800;15.956;2023-03-15T13:28:05;100015.63;;;5.22;67.22
67987;BME280;54767;53.800;15.956;2023-03-15T13:31:00;100017.96;;;5.17;67.70
67987;BME280;54767;53.800;15.956;2023-03-15T13:33:30;100025.83;;;5.11;67.39
67987;BME280;54767;53.800;15.956;2023-03-15T13:36:01;100026.30;;;5.09;67.48
67987;BME280;54767;53.800;15.956;2023-03-15T13:41:26;100022.06;;;5.13;67.90
67987;BME280;54767;53.800;15.956;2023-03-15T13:43:57;100023.57;;;5.20;67.89
67987;BME280;54767;53.800;15.956;2023-03-15T13:46:29;100023.51;;;5.26;67.47
67987;BME280;54767;53.800;15.956;2023-03-15T13:48:59;100021.41;;;5.34;67.58
67987;BME280;54767;53.800;15.956;2023-03-15T13:51:31;100026.77;;;5.41;67.69
67987;BME280;54767;53.800;15.956;2023-03-15T13:54:03;100022.37;;;5.48;67.93
67987;BME280;54767;53.800;15.956;2023-03-15T13:56:35;100024.20;;;5.52;67.28
67987;BME280;54767;53.800;15.956;2023-03-15T13:59:16;100025.02;;;5.58;67.21
67987;BME280;54767;53.800;15.956;2023-03-15T14:01:46;100023.39;;;5.65;67.26
67987;BME280;54767;53.800;15.956;2023-03-15T14:04:17;100023.09;;;5.68;66.96
67987;BME280;54767;53.800;15.956;2023-03-15T14:06:46;100020.03;;;5.71;66.75
67987;BME280;54767;53.800;15.956;2023-03-15T14:09:22;100022.20;;;5.75;66.65
67987;BME280;54767;53.800;15.956;2023-03-15T14:12:02;100021.75;;;5.80;66.42
67987;BME280;54767;53.800;15.956;2023-03-15T14:14:35;100020.24;;;5.83;65.94
67987;BME280;54767;53.800;15.956;2023-03-15T14:17:24;100023.25;;;5.85;65.93
67987;BME280;54767;53.800;15.956;2023-03-15T14:19:55;100025.17;;;5.87;65.78
67987;BME280;54767;53.800;15.956;2023-03-15T14:22:24;100030.52;;;5.84;65.85
67987;BME280;54767;53.800;15.956;2023-03-15T14:24:52;100032.92;;;5.83;65.99
67987;BME280;54767;53.800;15.956;2023-03-15T14:27:26;100035.52;;;5.82;65.66
67987;BME280;54767;53.800;15.956;2023-03-15T14:30:01;100034.42;;;5.70;62.47
67987;BME280;54767;53.800;15.956;2023-03-15T14:32:36;100032.86;;;5.52;62.96
67987;BME280;54767;53.800;15.956;2023-03-15T14:37:45;100040.80;;;5.40;64.36
67987;BME280;54767;53.800;15.956;2023-03-15T14:40:21;100037.09;;;5.37;64.44